createdAt,value
2018-12-26T00:00:02.643Z,-0.01
2018-12-26T00:01:02.523Z,-0.05
2018-12-26T00:02:02.503Z,-0.11
2018-12-26T00:03:02.520Z,-0.14
2018-12-26T00:04:02.487Z,-0.08
2018-12-26T00:05:02.483Z,-0.05
2018-12-26T00:06:02.487Z,-0.14
2018-12-26T00:07:02.466Z,-0.10
2018-12-26T00:08:02.460Z,-0.08
2018-12-26T00:09:02.439Z,-0.10
2018-12-26T00:10:02.422Z,-0.14
2018-12-26T00:11:02.414Z,-0.19
2018-12-26T00:12:02.418Z,-0.18
2018-12-26T00:13:02.403Z,-0.16
2018-12-26T00:14:02.397Z,-0.22
2018-12-26T00:15:02.378Z,-0.21
2018-12-26T00:16:02.356Z,-0.23
2018-12-26T00:17:02.346Z,-0.22
2018-12-26T00:18:02.329Z,-0.21
2018-12-26T00:19:02.356Z,-0.28
2018-12-26T00:20:02.589Z,-0.28
2018-12-26T00:21:02.302Z,-0.31
2018-12-26T00:22:02.293Z,-0.33
2018-12-26T00:23:02.291Z,-0.31
2018-12-26T00:24:02.350Z,-0.34
2018-12-26T00:25:02.249Z,-0.37
2018-12-26T00:26:02.243Z,-0.37
2018-12-26T00:27:02.247Z,-0.43
2018-12-26T00:28:02.220Z,-0.44
2018-12-26T00:29:02.232Z,-0.40
2018-12-26T00:30:02.198Z,-0.31
2018-12-26T00:31:02.199Z,-0.42
2018-12-26T00:32:02.171Z,-0.39
2018-12-26T00:33:02.161Z,-0.46
2018-12-26T00:34:02.196Z,-0.54
2018-12-26T00:35:02.177Z,-0.46
2018-12-26T00:36:02.127Z,-0.54
2018-12-26T00:37:02.117Z,-0.51
2018-12-26T00:38:02.108Z,-0.54
2018-12-26T00:39:02.106Z,-0.55
2018-12-26T00:40:02.110Z,-0.60
2018-12-26T00:41:02.096Z,-0.67
2018-12-26T00:42:02.072Z,-0.65
2018-12-26T00:43:02.058Z,-0.69
2018-12-26T00:44:02.040Z,-0.69
2018-12-26T00:45:02.080Z,-0.62
2018-12-26T00:46:02.017Z,-0.67
2018-12-26T00:47:02.022Z,-0.73
2018-12-26T00:48:02.040Z,-0.75
2018-12-26T00:49:01.990Z,-0.73
2018-12-26T00:50:02.006Z,-0.76
2018-12-26T00:51:01.964Z,-0.72
2018-12-26T00:52:01.951Z,-0.72
2018-12-26T00:53:01.939Z,-0.75
2018-12-26T00:54:01.927Z,-0.72
2018-12-26T00:55:01.924Z,-0.75
2018-12-26T00:56:10.242Z,-0.80
2018-12-26T00:57:02.895Z,-0.73
2018-12-26T00:58:01.886Z,-0.76
2018-12-26T00:59:01.881Z,-0.75
2018-12-26T01:00:01.876Z,-0.86
2018-12-26T01:01:01.870Z,-0.78
2018-12-26T01:02:01.856Z,-0.72
2018-12-26T01:03:01.831Z,-0.79
2018-12-26T01:04:01.914Z,-0.75
2018-12-26T01:05:01.811Z,-0.79
2018-12-26T01:06:01.853Z,-0.83
2018-12-26T01:07:01.785Z,-0.80
2018-12-26T01:08:01.777Z,-0.76
2018-12-26T01:09:01.761Z,-0.78
2018-12-26T01:10:01.759Z,-0.82
2018-12-26T01:11:01.738Z,-0.82
2018-12-26T01:12:01.768Z,-0.80
2018-12-26T01:13:01.718Z,-0.82
2018-12-26T01:14:01.704Z,-0.82
2018-12-26T01:15:01.697Z,-0.89
2018-12-26T01:16:01.683Z,-0.92
2018-12-26T01:17:01.683Z,-0.89
2018-12-26T01:18:01.680Z,-0.92
2018-12-26T01:19:01.672Z,-0.92
2018-12-26T01:20:01.638Z,-0.83
2018-12-26T01:21:01.658Z,-0.85
2018-12-26T01:22:01.619Z,-0.94
2018-12-26T01:23:01.603Z,-0.83
2018-12-26T01:24:01.591Z,-0.91
2018-12-26T01:25:01.584Z,-0.92
2018-12-26T01:26:01.747Z,-0.91
2018-12-26T01:27:01.562Z,-0.86
2018-12-26T01:28:01.552Z,-0.91
2018-12-26T01:29:01.537Z,-0.91
2018-12-26T01:30:01.531Z,-0.91
2018-12-26T01:31:01.523Z,-0.92
2018-12-26T01:32:01.523Z,-0.85
2018-12-26T01:33:01.494Z,-0.94
2018-12-26T01:34:01.495Z,-0.95
2018-12-26T01:35:01.481Z,-1.02
2018-12-26T01:36:01.473Z,-0.99
2018-12-26T01:37:01.488Z,-0.94
2018-12-26T01:38:01.581Z,-0.97
2018-12-26T01:39:01.432Z,-0.99
2018-12-26T01:40:01.421Z,-0.97
2018-12-26T01:41:01.405Z,-1.01
2018-12-26T01:42:01.425Z,-0.99
2018-12-26T01:43:01.397Z,-0.91
2018-12-26T01:44:01.387Z,-0.95
2018-12-26T01:45:01.372Z,-1.02
2018-12-26T01:46:01.368Z,-0.94
2018-12-26T01:47:01.342Z,-0.92
2018-12-26T01:48:01.357Z,-0.99
2018-12-26T01:49:01.313Z,-0.99
2018-12-26T01:50:01.440Z,-0.97
2018-12-26T01:51:01.302Z,-0.99
2018-12-26T01:52:01.297Z,-0.92
2018-12-26T01:53:01.270Z,-0.99
2018-12-26T01:54:01.286Z,-1.07
2018-12-26T01:55:01.255Z,-1.10
2018-12-26T01:56:01.249Z,-0.95
2018-12-26T01:57:01.228Z,-0.99
2018-12-26T01:58:01.237Z,-1.04
2018-12-26T01:59:01.252Z,-1.01
2018-12-26T02:00:01.192Z,-1.13
2018-12-26T02:01:01.182Z,-1.05
2018-12-26T02:02:01.169Z,-1.13
2018-12-26T02:03:01.164Z,-1.10
2018-12-26T02:04:01.166Z,-1.16
2018-12-26T02:05:01.138Z,-1.13
2018-12-26T02:06:01.135Z,-1.17
2018-12-26T02:07:01.123Z,-1.25
2018-12-26T02:08:01.155Z,-1.30
2018-12-26T02:09:01.109Z,-1.35
2018-12-26T02:10:01.079Z,-1.31
2018-12-26T02:11:01.071Z,-1.35
2018-12-26T02:12:01.060Z,-1.34
2018-12-26T02:13:01.065Z,-1.31
2018-12-26T02:14:01.044Z,-1.35
2018-12-26T02:15:01.044Z,-1.30
2018-12-26T02:16:01.040Z,-1.25
2018-12-26T02:17:01.015Z,-1.27
2018-12-26T02:18:01.039Z,-1.25
2018-12-26T02:19:00.998Z,-1.37
2018-12-26T02:20:00.987Z,-1.25
2018-12-26T02:21:00.969Z,-1.34
2018-12-26T02:22:00.948Z,-1.28
2018-12-26T02:23:00.944Z,-1.35
2018-12-26T02:24:00.964Z,-1.38
2018-12-26T02:25:00.920Z,-1.31
2018-12-26T02:26:00.918Z,-1.33
2018-12-26T02:27:00.897Z,-1.34
2018-12-26T02:28:00.893Z,-1.37
2018-12-26T02:29:00.880Z,-1.31
2018-12-26T02:30:00.891Z,-1.31
2018-12-26T02:31:00.857Z,-1.35
2018-12-26T02:32:00.855Z,-1.33
2018-12-26T02:33:00.832Z,-1.40
2018-12-26T02:34:00.843Z,-1.37
2018-12-26T02:35:00.807Z,-1.40
2018-12-26T02:36:00.798Z,-1.48
2018-12-26T02:37:00.806Z,-1.31
2018-12-26T02:38:00.780Z,-1.37
2018-12-26T02:39:00.779Z,-1.43
2018-12-26T02:40:00.780Z,-1.40
2018-12-26T02:41:00.761Z,-1.38
2018-12-26T02:42:00.741Z,-1.43
2018-12-26T02:43:00.724Z,-1.38
2018-12-26T02:44:00.710Z,-1.43
2018-12-26T02:45:00.726Z,-1.40
2018-12-26T02:46:00.718Z,-1.43
2018-12-26T02:47:00.679Z,-1.33
2018-12-26T02:48:00.673Z,-1.38
2018-12-26T02:49:00.658Z,-1.34
2018-12-26T02:50:00.665Z,-1.41
2018-12-26T02:51:00.639Z,-1.38
2018-12-26T02:52:00.632Z,-1.35
2018-12-26T02:53:00.635Z,-1.38
2018-12-26T02:54:00.613Z,-1.34
2018-12-26T02:55:00.617Z,-1.48
2018-12-26T02:56:00.601Z,-1.40
2018-12-26T02:57:00.611Z,-1.41
2018-12-26T02:58:00.568Z,-1.45
2018-12-26T02:59:00.551Z,-1.43
2018-12-26T03:00:00.586Z,-1.46
2018-12-26T03:01:00.568Z,-1.37
2018-12-26T03:02:00.513Z,-1.49
2018-12-26T03:03:00.519Z,-1.34
2018-12-26T03:04:00.490Z,-1.41
2018-12-26T03:05:00.485Z,-1.40
2018-12-26T03:06:00.501Z,-1.48
2018-12-26T03:07:00.457Z,-1.45
2018-12-26T03:08:00.446Z,-1.41
2018-12-26T03:09:00.439Z,-1.43
2018-12-26T03:10:00.446Z,-1.43
2018-12-26T03:11:00.431Z,-1.43
2018-12-26T03:12:00.423Z,-1.45
2018-12-26T03:13:00.397Z,-1.49
2018-12-26T03:14:00.392Z,-1.48
2018-12-26T03:15:00.537Z,-1.48
2018-12-26T03:16:00.381Z,-1.46
2018-12-26T03:17:00.350Z,-1.46
2018-12-26T03:18:00.343Z,-1.37
2018-12-26T03:19:00.343Z,-1.49
2018-12-26T03:20:00.353Z,-1.40
2018-12-26T03:21:00.313Z,-1.35
2018-12-26T03:22:00.343Z,-1.38
2018-12-26T03:23:00.286Z,-1.34
2018-12-26T03:24:00.289Z,-1.31
2018-12-26T03:25:00.273Z,-1.48
2018-12-26T03:26:00.263Z,-1.41
2018-12-26T03:27:00.261Z,-1.43
2018-12-26T03:28:00.235Z,-1.46
2018-12-26T03:29:00.218Z,-1.40
2018-12-26T03:30:00.274Z,-1.54
2018-12-26T03:31:00.205Z,-1.54
2018-12-26T03:32:00.187Z,-1.59
2018-12-26T03:33:00.190Z,-1.54
2018-12-26T03:34:00.162Z,-1.54
2018-12-26T03:35:00.242Z,-1.56
2018-12-26T03:36:00.141Z,-1.66
2018-12-26T03:37:00.151Z,-1.54
2018-12-26T03:38:00.119Z,-1.61
2018-12-26T03:39:00.109Z,-1.58
2018-12-26T03:40:00.325Z,-1.55
2018-12-26T03:41:00.114Z,-1.64
2018-12-26T03:42:00.113Z,-1.61
2018-12-26T03:43:00.077Z,-1.58
2018-12-26T03:44:00.056Z,-1.56
2018-12-26T03:45:00.056Z,-1.61
2018-12-26T03:46:00.032Z,-1.64
2018-12-26T03:47:00.023Z,-1.69
2018-12-26T03:48:00.054Z,-1.69
2018-12-26T03:49:00.018Z,-1.59
2018-12-26T03:49:59.997Z,-1.64
2018-12-26T03:50:59.983Z,-1.70
2018-12-26T03:52:02.137Z,-1.62
2018-12-26T03:52:59.990Z,-1.66
2018-12-26T03:53:59.955Z,-1.58
2018-12-26T03:54:59.957Z,-1.70
2018-12-26T03:55:59.937Z,-1.62
2018-12-26T03:57:05.783Z,-1.70
2018-12-26T03:58:00.932Z,-1.66
2018-12-26T03:58:59.909Z,-1.69
2018-12-26T03:59:59.901Z,-1.69
2018-12-26T04:00:59.873Z,-1.74
2018-12-26T04:01:59.860Z,-1.69
2018-12-26T04:02:59.868Z,-1.66
2018-12-26T04:03:59.839Z,-1.61
2018-12-26T04:04:59.843Z,-1.70
2018-12-26T04:05:59.819Z,-1.69
2018-12-26T04:06:59.815Z,-1.62
2018-12-26T04:07:59.815Z,-1.67
2018-12-26T04:08:59.795Z,-1.69
2018-12-26T04:09:59.773Z,-1.70
2018-12-26T04:10:59.766Z,-1.59
2018-12-26T04:11:59.793Z,-1.70
2018-12-26T04:12:59.763Z,-1.69
2018-12-26T04:13:59.748Z,-1.69
2018-12-26T04:14:59.723Z,-1.67
2018-12-26T04:15:59.711Z,-1.72
2018-12-26T04:16:59.701Z,-1.62
2018-12-26T04:17:59.731Z,-1.72
2018-12-26T04:18:59.698Z,-1.79
2018-12-26T04:19:59.673Z,-1.64
2018-12-26T04:20:59.660Z,-1.74
2018-12-26T04:21:59.651Z,-1.74
2018-12-26T04:22:59.642Z,-1.66
2018-12-26T04:23:59.647Z,-1.73
2018-12-26T04:24:59.618Z,-1.73
2018-12-26T04:25:59.604Z,-1.76
2018-12-26T04:26:59.596Z,-1.77
2018-12-26T04:27:59.607Z,-1.72
2018-12-26T04:28:59.592Z,-1.74
2018-12-26T04:29:59.560Z,-1.67
2018-12-26T04:30:59.551Z,-1.74
2018-12-26T04:31:59.543Z,-1.85
2018-12-26T04:32:59.541Z,-1.66
2018-12-26T04:33:59.518Z,-1.66
2018-12-26T04:34:59.539Z,-1.70
2018-12-26T04:35:59.500Z,-1.70
2018-12-26T04:36:59.487Z,-1.61
2018-12-26T04:37:59.475Z,-1.69
2018-12-26T04:38:59.467Z,-1.55
2018-12-26T04:39:59.480Z,-1.61
2018-12-26T04:40:59.447Z,-1.66
2018-12-26T04:41:59.435Z,-1.55
2018-12-26T04:42:59.421Z,-1.56
2018-12-26T04:43:59.440Z,-1.56
2018-12-26T04:44:59.414Z,-1.59
2018-12-26T04:45:59.388Z,-1.56
2018-12-26T04:46:59.391Z,-1.56
2018-12-26T04:47:59.369Z,-1.45
2018-12-26T04:48:59.356Z,-1.40
2018-12-26T04:49:59.366Z,-1.59
2018-12-26T04:50:59.352Z,-1.61
2018-12-26T04:51:59.324Z,-1.58
2018-12-26T04:52:59.317Z,-1.54
2018-12-26T04:53:59.305Z,-1.52
2018-12-26T04:54:59.328Z,-1.59
2018-12-26T04:55:59.308Z,-1.54
2018-12-26T04:56:59.273Z,-1.70
2018-12-26T04:57:59.259Z,-1.62
2018-12-26T04:58:59.275Z,-1.66
2018-12-26T04:59:59.387Z,-1.54
2018-12-26T05:00:59.231Z,-1.61
2018-12-26T05:01:59.221Z,-1.64
2018-12-26T05:02:59.209Z,-1.59
2018-12-26T05:03:59.196Z,-1.67
2018-12-26T05:04:59.213Z,-1.61
2018-12-26T05:05:59.208Z,-1.61
2018-12-26T05:06:59.162Z,-1.61
2018-12-26T05:07:59.155Z,-1.62
2018-12-26T05:08:59.142Z,-1.58
2018-12-26T05:09:59.131Z,-1.62
2018-12-26T05:10:59.192Z,-1.58
2018-12-26T05:11:59.120Z,-1.67
2018-12-26T05:12:59.101Z,-1.58
2018-12-26T05:13:59.091Z,-1.62
2018-12-26T05:14:59.077Z,-1.58
2018-12-26T05:15:59.084Z,-1.49
2018-12-26T05:16:59.059Z,-1.52
2018-12-26T05:17:59.048Z,-1.51
2018-12-26T05:18:59.034Z,-1.52
2018-12-26T05:19:59.022Z,-1.59
2018-12-26T05:20:59.031Z,-1.61
2018-12-26T05:21:59.004Z,-1.69
2018-12-26T05:22:58.998Z,-1.70
2018-12-26T05:23:58.988Z,-1.69
2018-12-26T05:24:58.972Z,-1.69
2018-12-26T05:25:59.001Z,-1.69
2018-12-26T05:26:58.948Z,-1.58
2018-12-26T05:27:58.940Z,-1.58
2018-12-26T05:28:58.931Z,-1.59
2018-12-26T05:29:58.922Z,-1.58
2018-12-26T05:30:58.905Z,-1.74
2018-12-26T05:31:58.915Z,-1.61
2018-12-26T05:32:58.885Z,-1.62
2018-12-26T05:33:58.873Z,-1.55
2018-12-26T05:34:58.863Z,-1.62
2018-12-26T05:35:58.855Z,-1.51
2018-12-26T05:36:58.858Z,-1.66
2018-12-26T05:37:58.837Z,-1.61
2018-12-26T05:38:58.820Z,-1.61
2018-12-26T05:39:58.809Z,-1.62
2018-12-26T05:40:58.799Z,-1.61
2018-12-26T05:41:58.812Z,-1.58
2018-12-26T05:42:58.778Z,-1.69
2018-12-26T05:43:58.774Z,-1.69
2018-12-26T05:44:58.760Z,-1.61
2018-12-26T05:45:58.750Z,-1.58
2018-12-26T05:46:58.758Z,-1.64
2018-12-26T05:47:58.727Z,-1.67
2018-12-26T05:48:58.714Z,-1.66
2018-12-26T05:49:58.701Z,-1.74
2018-12-26T05:50:58.690Z,-1.73
2018-12-26T05:51:58.707Z,-1.76
2018-12-26T05:52:58.673Z,-1.64
2018-12-26T05:53:58.662Z,-1.70
2018-12-26T05:54:58.649Z,-1.61
2018-12-26T05:55:58.640Z,-1.66
2018-12-26T05:56:58.628Z,-1.61
2018-12-26T05:57:58.643Z,-1.62
2018-12-26T05:58:58.605Z,-1.69
2018-12-26T05:59:58.603Z,-1.72
2018-12-26T06:00:58.582Z,-1.87
2018-12-26T06:01:58.574Z,-1.70
2018-12-26T06:02:58.578Z,-1.70
2018-12-26T06:03:58.559Z,-1.72
2018-12-26T06:04:58.542Z,-1.73
2018-12-26T06:05:58.531Z,-1.67
2018-12-26T06:06:58.520Z,-1.62
2018-12-26T06:07:58.526Z,-1.61
2018-12-26T06:08:58.499Z,-1.66
2018-12-26T06:09:58.496Z,-1.73
2018-12-26T06:10:58.478Z,-1.73
2018-12-26T06:11:58.469Z,-1.80
2018-12-26T06:12:58.475Z,-1.85
2018-12-26T06:13:58.446Z,-1.85
2018-12-26T06:14:58.445Z,-1.82
2018-12-26T06:15:58.422Z,-1.77
2018-12-26T06:16:58.413Z,-1.82
2018-12-26T06:17:58.421Z,-1.84
2018-12-26T06:18:58.389Z,-1.80
2018-12-26T06:19:58.380Z,-1.79
2018-12-26T06:20:58.369Z,-1.87
2018-12-26T06:21:58.362Z,-1.80
2018-12-26T06:22:58.392Z,-1.79
2018-12-26T06:23:58.336Z,-1.70
2018-12-26T06:24:58.325Z,-1.74
2018-12-26T06:25:58.312Z,-1.77
2018-12-26T06:26:58.304Z,-1.77
2018-12-26T06:27:58.291Z,-1.72
2018-12-26T06:28:58.301Z,-1.66
2018-12-26T06:29:58.276Z,-1.64
2018-12-26T06:30:58.259Z,-1.66
2018-12-26T06:31:58.250Z,-1.64
2018-12-26T06:32:58.245Z,-1.59
2018-12-26T06:33:58.245Z,-1.61
2018-12-26T06:34:58.218Z,-1.61
2018-12-26T06:35:58.207Z,-1.67
2018-12-26T06:36:58.195Z,-1.67
2018-12-26T06:37:58.186Z,-1.70
2018-12-26T06:38:58.208Z,-1.73
2018-12-26T06:39:58.168Z,-1.70
2018-12-26T06:40:58.173Z,-1.70
2018-12-26T06:41:58.144Z,-1.80
2018-12-26T06:42:58.130Z,-1.84
2018-12-26T06:43:58.148Z,-1.82
2018-12-26T06:44:58.109Z,-1.85
2018-12-26T06:45:58.155Z,-1.92
2018-12-26T06:46:58.087Z,-1.90
2018-12-26T06:47:58.086Z,-1.92
2018-12-26T06:48:58.096Z,-1.87
2018-12-26T06:49:58.054Z,-1.84
2018-12-26T06:50:58.045Z,-1.88
2018-12-26T06:51:58.035Z,-1.80
2018-12-26T06:52:58.025Z,-1.85
2018-12-26T06:53:58.021Z,-1.76
2018-12-26T06:54:58.021Z,-1.80
2018-12-26T06:55:57.991Z,-1.77
2018-12-26T06:56:57.980Z,-1.70
2018-12-26T06:58:00.254Z,-1.77
2018-12-26T06:58:57.959Z,-1.79
2018-12-26T06:59:57.971Z,-1.80
2018-12-26T07:00:57.943Z,-1.70
2018-12-26T07:01:57.945Z,-1.74
2018-12-26T07:02:57.918Z,-1.72
2018-12-26T07:03:57.906Z,-1.77
2018-12-26T07:04:57.896Z,-1.67
2018-12-26T07:05:57.884Z,-1.70
2018-12-26T07:06:57.906Z,-1.76
2018-12-26T07:07:57.863Z,-1.64
2018-12-26T07:08:57.860Z,-1.74
2018-12-26T07:09:57.860Z,-1.70
2018-12-26T07:10:57.848Z,-1.64
2018-12-26T07:11:57.822Z,-1.69
2018-12-26T07:12:57.819Z,-1.72
2018-12-26T07:13:57.813Z,-1.74
2018-12-26T07:14:57.804Z,-1.73
2018-12-26T07:15:57.778Z,-1.74
2018-12-26T07:16:57.773Z,-1.82
2018-12-26T07:17:57.772Z,-1.77
2018-12-26T07:18:57.750Z,-1.73
2018-12-26T07:19:57.736Z,-1.72
2018-12-26T07:20:57.742Z,-1.70
2018-12-26T07:21:57.712Z,-1.66
2018-12-26T07:22:57.701Z,-1.58
2018-12-26T07:23:57.692Z,-1.74
2018-12-26T07:24:57.693Z,-1.61
2018-12-26T07:25:57.687Z,-1.66
2018-12-26T07:26:57.655Z,-1.70
2018-12-26T07:27:57.647Z,-1.66
2018-12-26T07:28:57.638Z,-1.69
2018-12-26T07:29:57.627Z,-1.67
2018-12-26T07:30:57.648Z,-1.66
2018-12-26T07:31:57.610Z,-1.66
2018-12-26T07:32:57.598Z,-1.67
2018-12-26T07:33:57.585Z,-1.69
2018-12-26T07:34:57.573Z,-1.62
2018-12-26T07:35:57.592Z,-1.72
2018-12-26T07:36:57.568Z,-1.70
2018-12-26T07:37:57.547Z,-1.62
2018-12-26T07:38:57.529Z,-1.69
2018-12-26T07:39:57.527Z,-1.73
2018-12-26T07:40:57.535Z,-1.59
2018-12-26T07:41:57.498Z,-1.66
2018-12-26T07:42:57.500Z,-1.66
2018-12-26T07:43:57.480Z,-1.67
2018-12-26T07:44:57.464Z,-1.61
2018-12-26T07:45:57.472Z,-1.59
2018-12-26T07:46:57.449Z,-1.51
2018-12-26T07:47:57.451Z,-1.51
2018-12-26T07:48:57.425Z,-1.49
2018-12-26T07:49:57.412Z,-1.38
2018-12-26T07:50:57.421Z,-1.43
2018-12-26T07:51:57.411Z,-1.35
2018-12-26T07:52:57.387Z,-1.34
2018-12-26T07:53:57.380Z,-1.35
2018-12-26T07:54:57.360Z,-1.35
2018-12-26T07:55:57.347Z,-1.31
2018-12-26T07:56:57.355Z,-1.35
2018-12-26T07:57:57.348Z,-1.33
2018-12-26T07:58:57.332Z,-1.33
2018-12-26T07:59:57.308Z,-1.34
2018-12-26T08:00:57.291Z,-1.35
2018-12-26T08:01:57.324Z,-1.34
2018-12-26T08:02:57.303Z,-1.25
2018-12-26T08:03:57.351Z,-1.20
2018-12-26T08:04:57.353Z,-1.37
2018-12-26T08:05:57.237Z,-1.38
2018-12-26T08:06:57.241Z,-1.22
2018-12-26T08:07:57.233Z,-1.37
2018-12-26T08:08:57.205Z,-1.35
2018-12-26T08:09:57.193Z,-1.30
2018-12-26T08:10:57.185Z,-1.37
2018-12-26T08:11:57.177Z,-1.34
2018-12-26T08:12:57.183Z,-1.30
2018-12-26T08:13:57.163Z,-1.38
2018-12-26T08:14:57.140Z,-1.25
2018-12-26T08:15:57.211Z,-1.34
2018-12-26T08:16:57.126Z,-1.27
2018-12-26T08:17:57.126Z,-1.25
2018-12-26T08:18:57.094Z,-1.23
2018-12-26T08:19:57.091Z,-1.23
2018-12-26T08:20:57.070Z,-1.19
2018-12-26T08:21:57.062Z,-1.33
2018-12-26T08:22:57.072Z,-1.23
2018-12-26T08:23:57.039Z,-1.22
2018-12-26T08:24:57.029Z,-1.19
2018-12-26T08:25:57.022Z,-1.17
2018-12-26T08:26:57.008Z,-1.13
2018-12-26T08:27:57.012Z,-1.07
2018-12-26T08:28:56.988Z,-1.13
2018-12-26T08:29:56.975Z,-1.16
2018-12-26T08:30:56.961Z,-1.13
2018-12-26T08:31:56.948Z,-1.13
2018-12-26T08:32:56.974Z,-1.20
2018-12-26T08:33:56.950Z,-1.20
2018-12-26T08:34:56.926Z,-1.17
2018-12-26T08:35:56.912Z,-1.23
2018-12-26T08:36:56.898Z,-1.20
2018-12-26T08:37:56.890Z,-1.20
2018-12-26T08:38:56.904Z,-1.15
2018-12-26T08:39:56.862Z,-1.13
2018-12-26T08:40:56.850Z,-1.12
2018-12-26T08:41:56.849Z,-1.17
2018-12-26T08:42:56.840Z,-1.16
2018-12-26T08:43:56.818Z,-1.13
2018-12-26T08:44:56.831Z,-1.15
2018-12-26T08:45:56.797Z,-1.13
2018-12-26T08:46:56.789Z,-1.15
2018-12-26T08:47:56.784Z,-1.17
2018-12-26T08:48:56.768Z,-1.07
2018-12-26T08:49:56.777Z,-1.04
2018-12-26T08:50:56.740Z,-1.07
2018-12-26T08:51:56.730Z,-1.13
2018-12-26T08:52:56.731Z,-1.15
2018-12-26T08:53:56.712Z,-1.13
2018-12-26T08:54:56.718Z,-1.15
2018-12-26T08:55:56.686Z,-1.15
2018-12-26T08:56:56.673Z,-1.16
2018-12-26T08:57:56.670Z,-1.20
2018-12-26T08:58:56.659Z,-1.20
2018-12-26T08:59:56.659Z,-1.10
2018-12-26T09:00:56.644Z,-1.13
2018-12-26T09:01:56.627Z,-1.13
2018-12-26T09:02:56.612Z,-1.05
2018-12-26T09:03:56.610Z,-1.15
2018-12-26T09:04:56.604Z,-1.09
2018-12-26T09:05:56.574Z,-1.04
2018-12-26T09:06:56.564Z,-1.12
2018-12-26T09:07:56.558Z,-1.02
2018-12-26T09:08:56.541Z,-1.13
2018-12-26T09:09:56.555Z,-1.16
2018-12-26T09:10:56.519Z,-1.09
2018-12-26T09:11:56.514Z,-1.12
2018-12-26T09:12:56.498Z,-1.17
2018-12-26T09:13:56.508Z,-1.15
2018-12-26T09:14:56.477Z,-1.20
2018-12-26T09:15:56.501Z,-1.15
2018-12-26T09:16:56.468Z,-1.13
2018-12-26T09:17:56.441Z,-1.15
2018-12-26T09:18:56.429Z,-1.15
2018-12-26T09:19:56.423Z,-1.12
2018-12-26T09:20:56.428Z,-1.09
2018-12-26T09:21:56.400Z,-1.05
2018-12-26T09:22:56.384Z,-1.04
2018-12-26T09:23:56.378Z,-1.13
2018-12-26T09:24:56.381Z,-1.02
2018-12-26T09:25:56.379Z,-1.09
2018-12-26T09:26:56.343Z,-1.02
2018-12-26T09:27:56.336Z,-1.07
2018-12-26T09:28:56.326Z,-1.04
2018-12-26T09:29:56.308Z,-1.05
2018-12-26T09:30:56.303Z,-1.04
2018-12-26T09:31:56.309Z,-0.94
2018-12-26T09:32:56.284Z,-0.98
2018-12-26T09:33:56.269Z,-1.04
2018-12-26T09:34:56.254Z,-1.01
2018-12-26T09:35:56.272Z,-0.99
2018-12-26T09:36:56.248Z,-1.04
2018-12-26T09:37:56.231Z,-0.98
2018-12-26T09:38:56.209Z,-0.97
2018-12-26T09:39:56.222Z,-0.92
2018-12-26T09:40:56.193Z,-0.94
2018-12-26T09:41:56.212Z,-0.85
2018-12-26T09:42:57.946Z,-0.83
2018-12-26T09:43:56.156Z,-0.89
2018-12-26T09:44:56.143Z,-0.91
2018-12-26T09:45:56.197Z,-0.83
2018-12-26T09:46:56.147Z,-0.86
2018-12-26T09:47:56.129Z,-0.86
2018-12-26T09:48:56.103Z,-0.83
2018-12-26T09:49:56.088Z,-0.82
2018-12-26T09:50:56.085Z,-0.82
2018-12-26T09:51:56.090Z,-0.85
2018-12-26T09:52:56.057Z,-0.76
2018-12-26T09:53:56.049Z,-0.82
2018-12-26T09:54:56.040Z,-0.76
2018-12-26T09:55:56.023Z,-0.82
2018-12-26T09:56:56.037Z,-0.75
2018-12-26T09:57:55.999Z,-0.89
2018-12-26T09:58:55.990Z,-0.83
2018-12-26T09:59:55.985Z,-0.97
2018-12-26T10:00:55.971Z,-0.92
2018-12-26T10:01:55.996Z,-0.91
2018-12-26T10:02:55.973Z,-0.94
2018-12-26T10:03:55.944Z,-0.99
2018-12-26T10:04:55.920Z,-0.95
2018-12-26T10:05:55.912Z,-0.99
2018-12-26T10:06:55.917Z,-0.97
2018-12-26T10:07:55.901Z,-0.99
2018-12-26T10:08:55.879Z,-1.05
2018-12-26T10:09:55.877Z,-1.10
2018-12-26T10:10:55.863Z,-1.09
2018-12-26T10:11:55.876Z,-1.07
2018-12-26T10:12:55.894Z,-1.05
2018-12-26T10:13:55.848Z,-1.05
2018-12-26T10:14:55.812Z,-0.99
2018-12-26T10:15:55.804Z,-1.07
2018-12-26T10:16:55.796Z,-1.01
2018-12-26T10:17:55.801Z,-0.95
2018-12-26T10:18:55.789Z,-0.92
2018-12-26T10:19:55.773Z,-0.92
2018-12-26T10:20:55.748Z,-0.92
2018-12-26T10:21:55.744Z,-0.97
2018-12-26T10:22:55.722Z,-0.85
2018-12-26T10:23:55.724Z,-0.97
2018-12-26T10:24:55.703Z,-0.97
2018-12-26T10:25:55.691Z,-0.94
2018-12-26T10:26:55.678Z,-0.89
2018-12-26T10:27:55.666Z,-0.91
2018-12-26T10:29:00.907Z,-0.83
2018-12-26T10:29:56.644Z,-0.83
2018-12-26T10:30:55.633Z,-0.83
2018-12-26T10:31:55.622Z,-0.86
2018-12-26T10:32:55.610Z,-0.82
2018-12-26T10:33:55.649Z,-0.79
2018-12-26T10:34:55.587Z,-0.80
2018-12-26T10:35:55.584Z,-0.92
2018-12-26T10:36:55.571Z,-0.73
2018-12-26T10:37:55.559Z,-0.91
2018-12-26T10:38:55.567Z,-0.85
2018-12-26T10:39:55.546Z,-0.86
2018-12-26T10:40:55.530Z,-0.82
2018-12-26T10:41:55.514Z,-0.85
2018-12-26T10:42:55.505Z,-0.86
2018-12-26T10:43:55.514Z,-0.83
2018-12-26T10:44:55.481Z,-0.92
2018-12-26T10:45:55.464Z,-0.86
2018-12-26T10:46:55.456Z,-0.83
2018-12-26T10:47:55.447Z,-0.75
2018-12-26T10:48:55.463Z,-0.86
2018-12-26T10:49:55.425Z,-0.85
2018-12-26T10:50:55.411Z,-0.72
2018-12-26T10:51:55.400Z,-0.80
2018-12-26T10:52:55.389Z,-0.91
2018-12-26T10:53:55.378Z,-0.89
2018-12-26T10:54:55.394Z,-0.83
2018-12-26T10:55:55.379Z,-0.86
2018-12-26T10:56:55.343Z,-0.86
2018-12-26T10:57:55.333Z,-0.89
2018-12-26T10:58:55.321Z,-0.91
2018-12-26T10:59:55.336Z,-0.91
2018-12-26T11:00:55.307Z,-1.05
2018-12-26T11:01:55.295Z,-0.86
2018-12-26T11:02:55.308Z,-0.91
2018-12-26T11:03:55.278Z,-0.91
2018-12-26T11:04:55.304Z,-0.95
2018-12-26T11:05:55.267Z,-0.86
2018-12-26T11:06:55.235Z,-0.80
2018-12-26T11:07:55.224Z,-0.85
2018-12-26T11:08:55.211Z,-0.85
2018-12-26T11:09:55.220Z,-0.79
2018-12-26T11:10:55.195Z,-0.83
2018-12-26T11:11:55.183Z,-0.82
2018-12-26T11:12:55.173Z,-0.83
2018-12-26T11:13:55.156Z,-0.80
2018-12-26T11:14:55.176Z,-0.73
2018-12-26T11:15:55.143Z,-0.86
2018-12-26T11:16:55.138Z,-0.78
2018-12-26T11:17:55.116Z,-0.75
2018-12-26T11:18:55.105Z,-0.67
2018-12-26T11:19:55.086Z,-0.65
2018-12-26T11:20:55.101Z,-0.62
2018-12-26T11:21:55.071Z,-0.57
2018-12-26T11:22:55.068Z,-0.65
2018-12-26T11:23:55.050Z,-0.57
2018-12-26T11:24:55.032Z,-0.57
2018-12-26T11:25:55.041Z,-0.51
2018-12-26T11:26:55.009Z,-0.49
2018-12-26T11:27:54.997Z,-0.47
2018-12-26T11:28:54.995Z,-0.54
2018-12-26T11:29:54.988Z,-0.47
2018-12-26T11:30:54.997Z,-0.54
2018-12-26T11:31:54.960Z,-0.52
2018-12-26T11:32:54.955Z,-0.44
2018-12-26T11:33:54.937Z,-0.46
2018-12-26T11:34:54.925Z,-0.61
2018-12-26T11:35:54.952Z,-0.52
2018-12-26T11:36:54.917Z,-0.62
2018-12-26T11:37:54.892Z,-0.64
2018-12-26T11:38:54.881Z,-0.61
2018-12-26T11:39:54.874Z,-0.72
2018-12-26T11:40:54.860Z,-0.64
2018-12-26T11:41:54.902Z,-0.80
2018-12-26T11:42:54.839Z,-0.62
2018-12-26T11:43:54.825Z,-0.65
2018-12-26T11:44:54.813Z,-0.69
2018-12-26T11:45:54.810Z,-0.67
2018-12-26T11:46:56.923Z,-0.67
2018-12-26T11:47:54.795Z,-0.67
2018-12-26T11:48:54.769Z,-0.64
2018-12-26T11:49:54.759Z,-0.69
2018-12-26T11:50:54.753Z,-0.70
2018-12-26T11:51:54.767Z,-0.76
2018-12-26T11:52:54.736Z,-0.70
2018-12-26T11:53:54.719Z,-0.73
2018-12-26T11:54:54.713Z,-0.67
2018-12-26T11:55:54.697Z,-0.60
2018-12-26T11:56:54.712Z,-0.69
2018-12-26T11:57:54.678Z,-0.62
2018-12-26T11:58:54.662Z,-0.67
2018-12-26T11:59:54.653Z,-0.61
2018-12-26T12:00:54.641Z,-0.57
2018-12-26T12:01:54.643Z,-0.54
2018-12-26T12:02:54.612Z,-0.52
2018-12-26T12:03:54.611Z,-0.49
2018-12-26T12:04:54.592Z,-0.52
2018-12-26T12:05:54.592Z,-0.43
2018-12-26T12:06:54.609Z,-0.40
2018-12-26T12:07:54.561Z,-0.44
2018-12-26T12:08:54.542Z,-0.36
2018-12-26T12:09:54.534Z,-0.36
2018-12-26T12:10:54.525Z,-0.40
2018-12-26T12:11:54.534Z,-0.34
2018-12-26T12:12:54.507Z,-0.43
2018-12-26T12:13:54.504Z,-0.40
2018-12-26T12:14:54.477Z,-0.28
2018-12-26T12:15:54.478Z,-0.28
2018-12-26T12:16:54.474Z,-0.29
2018-12-26T12:17:54.446Z,-0.34
2018-12-26T12:18:54.436Z,-0.39
2018-12-26T12:19:54.439Z,-0.40
2018-12-26T12:20:54.427Z,-0.44
2018-12-26T12:21:54.414Z,-0.46
2018-12-26T12:22:54.408Z,-0.49
2018-12-26T12:23:54.379Z,-0.42
2018-12-26T12:24:54.379Z,-0.37
2018-12-26T12:25:54.387Z,-0.39
2018-12-26T12:26:54.404Z,-0.40
2018-12-26T12:27:54.355Z,-0.49
2018-12-26T12:28:54.329Z,-0.47
2018-12-26T12:29:54.313Z,-0.54
2018-12-26T12:30:54.303Z,-0.52
2018-12-26T12:31:54.299Z,-0.67
2018-12-26T12:32:54.321Z,-0.57
2018-12-26T12:33:54.286Z,-0.67
2018-12-26T12:34:54.262Z,-0.60
2018-12-26T12:35:54.246Z,-0.62
2018-12-26T12:36:54.243Z,-0.69
2018-12-26T12:37:54.244Z,-0.64
2018-12-26T12:38:54.213Z,-0.55
2018-12-26T12:39:54.221Z,-0.62
2018-12-26T12:40:54.205Z,-0.67
2018-12-26T12:41:54.182Z,-0.64
2018-12-26T12:42:54.199Z,-0.64
2018-12-26T12:43:54.175Z,-0.70
2018-12-26T12:44:54.152Z,-0.64
2018-12-26T12:45:54.152Z,-0.70
2018-12-26T12:46:54.133Z,-0.65
2018-12-26T12:47:54.129Z,-0.70
2018-12-26T12:48:54.120Z,-0.72
2018-12-26T12:49:54.091Z,-0.76
2018-12-26T12:50:54.092Z,-0.73
2018-12-26T12:51:54.070Z,-0.75